createdAt,value
2018-09-09T00:03:00.000Z,17.2
2018-09-09T00:08:00.000Z,17.2
2018-09-09T00:14:00.000Z,17.1
2018-09-09T00:19:00.000Z,17.1
2018-09-09T00:24:00.000Z,17.1
2018-09-09T00:29:00.000Z,17.1
2018-09-09T00:34:00.000Z,17.0
2018-09-09T00:39:00.000Z,17.0
2018-09-09T00:44:00.000Z,16.9
2018-09-09T00:49:00.000Z,16.9
2018-09-09T00:54:00.000Z,16.9
2018-09-09T00:59:00.000Z,16.9
2018-09-09T01:04:00.000Z,16.9
2018-09-09T01:09:00.000Z,16.9
2018-09-09T01:14:00.000Z,16.9
2018-09-09T01:19:00.000Z,16.9
2018-09-09T01:24:00.000Z,16.9
2018-09-09T01:29:00.000Z,16.9
2018-09-09T01:34:00.000Z,16.8
2018-09-09T01:39:00.000Z,16.8
2018-09-09T01:44:00.000Z,16.7
2018-09-09T01:49:00.000Z,16.7
2018-09-09T01:54:00.000Z,16.7
2018-09-09T01:59:00.000Z,16.6
2018-09-09T02:04:00.000Z,16.6
2018-09-09T02:09:00.000Z,16.6
2018-09-09T02:14:00.000Z,16.5
2018-09-09T02:19:00.000Z,16.4
2018-09-09T02:24:00.000Z,16.4
2018-09-09T02:29:00.000Z,16.4
2018-09-09T02:34:00.000Z,16.3
2018-09-09T02:39:00.000Z,16.3
2018-09-09T02:44:00.000Z,16.3
2018-09-09T02:49:00.000Z,16.2
2018-09-09T02:54:00.000Z,16.2
2018-09-09T02:59:00.000Z,16.2
2018-09-09T03:04:00.000Z,16.2
2018-09-09T03:09:00.000Z,16.2
2018-09-09T03:14:00.000Z,16.2
2018-09-09T03:19:00.000Z,16.2
2018-09-09T03:24:00.000Z,16.2
2018-09-09T03:29:00.000Z,16.1
2018-09-09T03:34:00.000Z,16.1
2018-09-09T03:39:00.000Z,16.0
2018-09-09T03:44:00.000Z,16.0
2018-09-09T03:49:00.000Z,15.9
2018-09-09T03:54:00.000Z,15.8
2018-09-09T03:59:00.000Z,15.7
2018-09-09T04:04:00.000Z,15.7
2018-09-09T04:09:00.000Z,15.7
2018-09-09T04:14:00.000Z,15.6
2018-09-09T04:19:00.000Z,15.6
2018-09-09T04:24:00.000Z,15.6
2018-09-09T04:29:00.000Z,15.5
2018-09-09T04:34:00.000Z,15.5
2018-09-09T04:39:00.000Z,15.5
2018-09-09T04:44:00.000Z,15.5
2018-09-09T04:49:00.000Z,15.5
2018-09-09T04:54:00.000Z,15.5
2018-09-09T04:59:00.000Z,15.5
2018-09-09T05:04:00.000Z,15.5
2018-09-09T05:09:00.000Z,15.5
2018-09-09T05:14:00.000Z,15.6
2018-09-09T05:19:00.000Z,15.6
2018-09-09T05:24:00.000Z,15.7
2018-09-09T05:29:00.000Z,15.7
2018-09-09T05:34:00.000Z,15.8
2018-09-09T05:39:00.000Z,15.9
2018-09-09T05:44:00.000Z,16.0
2018-09-09T05:49:00.000Z,16.1
2018-09-09T05:54:00.000Z,16.2
2018-09-09T05:59:00.000Z,16.3
2018-09-09T06:04:00.000Z,16.5
2018-09-09T06:09:00.000Z,16.6
2018-09-09T06:14:00.000Z,16.8
2018-09-09T06:19:00.000Z,16.9
2018-09-09T06:25:00.000Z,17.0
2018-09-09T06:30:00.000Z,17.1
2018-09-09T06:35:00.000Z,17.3
2018-09-09T06:40:00.000Z,17.4
2018-09-09T06:45:00.000Z,17.5
2018-09-09T06:50:00.000Z,17.7
2018-09-09T06:55:00.000Z,17.8
2018-09-09T07:00:00.000Z,18.0
2018-09-09T07:05:00.000Z,18.2
2018-09-09T07:10:00.000Z,18.3
2018-09-09T07:15:00.000Z,18.5
2018-09-09T07:20:00.000Z,18.7
2018-09-09T07:25:00.000Z,18.9
2018-09-09T07:30:00.000Z,19.1
2018-09-09T07:35:00.000Z,19.3
2018-09-09T07:40:00.000Z,19.5
2018-09-09T07:45:00.000Z,19.7
2018-09-09T07:50:00.000Z,19.8
2018-09-09T07:55:00.000Z,19.9
2018-09-09T08:00:00.000Z,20.1
2018-09-09T08:05:00.000Z,20.2
2018-09-09T08:10:00.000Z,20.6
2018-09-09T08:15:00.000Z,21.9
2018-09-09T08:20:00.000Z,23.1
2018-09-09T08:25:00.000Z,24.4
2018-09-09T08:30:00.000Z,25.5
2018-09-09T08:35:00.000Z,26.5
2018-09-09T08:40:00.000Z,27.2
2018-09-09T08:45:00.000Z,27.8
2018-09-09T08:50:00.000Z,28.3
2018-09-09T08:55:00.000Z,28.9
2018-09-09T09:00:00.000Z,29.0
2018-09-09T09:05:00.000Z,28.8
2018-09-09T09:10:00.000Z,28.6
2018-09-09T09:15:00.000Z,28.9
2018-09-09T09:20:00.000Z,28.7
2018-09-09T09:25:00.000Z,28.4
2018-09-09T09:30:00.000Z,28.8
2018-09-09T09:35:00.000Z,29.1
2018-09-09T09:40:00.000Z,29.5
2018-09-09T09:45:00.000Z,29.4
2018-09-09T09:50:00.000Z,29.2
2018-09-09T09:55:00.000Z,29.6
2018-09-09T10:00:00.000Z,29.8
2018-09-09T10:05:00.000Z,29.7
2018-09-09T10:10:00.000Z,29.7
2018-09-09T10:15:00.000Z,30.0
2018-09-09T10:20:00.000Z,30.0
2018-09-09T10:25:00.000Z,30.0
2018-09-09T10:30:00.000Z,30.0
2018-09-09T10:35:00.000Z,30.1
2018-09-09T10:40:00.000Z,30.3
2018-09-09T10:45:00.000Z,30.0
2018-09-09T10:50:00.000Z,29.9
2018-09-09T10:55:00.000Z,29.7
2018-09-09T11:00:00.000Z,29.5
2018-09-09T11:05:00.000Z,29.5
2018-09-09T11:10:00.000Z,29.5
2018-09-09T11:15:00.000Z,29.3
2018-09-09T11:20:00.000Z,29.3
2018-09-09T11:25:00.000Z,29.2
2018-09-09T11:30:00.000Z,28.9
2018-09-09T11:35:00.000Z,28.2
2018-09-09T11:40:00.000Z,27.5
2018-09-09T11:45:00.000Z,27.4
2018-09-09T11:50:00.000Z,27.3
2018-09-09T11:55:00.000Z,27.1
2018-09-09T12:00:00.000Z,27.0
2018-09-09T12:06:00.000Z,27.0
2018-09-09T12:11:00.000Z,26.9
2018-09-09T12:16:00.000Z,26.9
2018-09-09T12:21:00.000Z,26.9
2018-09-09T12:26:00.000Z,26.7
2018-09-09T12:31:00.000Z,26.9
2018-09-09T12:36:00.000Z,27.1
2018-09-09T12:41:00.000Z,27.1
2018-09-09T12:46:00.000Z,26.9
2018-09-09T12:51:00.000Z,27.3
2018-09-09T12:56:00.000Z,27.6
2018-09-09T13:01:00.000Z,28.0
2018-09-09T13:06:00.000Z,28.2
2018-09-09T13:11:00.000Z,28.3
2018-09-09T13:16:00.000Z,28.5
2018-09-09T13:21:00.000Z,28.4
2018-09-09T13:26:00.000Z,28.4
2018-09-09T13:31:00.000Z,28.4
2018-09-09T13:36:00.000Z,28.3
2018-09-09T13:41:00.000Z,28.4
2018-09-09T13:46:00.000Z,28.4
2018-09-09T13:51:00.000Z,28.5
2018-09-09T13:56:00.000Z,28.5
2018-09-09T14:01:00.000Z,28.1
2018-09-09T14:06:00.000Z,27.6
2018-09-09T14:11:00.000Z,27.5
2018-09-09T14:16:00.000Z,27.5
2018-09-09T14:21:00.000Z,27.6
2018-09-09T14:26:00.000Z,27.6
2018-09-09T14:31:00.000Z,27.7
2018-09-09T14:36:00.000Z,27.7
2018-09-09T14:41:00.000Z,27.6
2018-09-09T14:46:00.000Z,27.4
2018-09-09T14:51:00.000Z,27.1
2018-09-09T14:56:00.000Z,27.0
2018-09-09T15:01:00.000Z,27.7
2018-09-09T15:06:00.000Z,27.9
2018-09-09T15:11:00.000Z,27.5
2018-09-09T15:16:00.000Z,26.9
2018-09-09T15:21:00.000Z,26.5
2018-09-09T15:26:00.000Z,26.1
2018-09-09T15:31:00.000Z,25.9
2018-09-09T15:36:00.000Z,25.7
2018-09-09T15:41:00.000Z,25.6
2018-09-09T15:46:00.000Z,25.4
2018-09-09T15:51:00.000Z,25.3
2018-09-09T15:56:00.000Z,25.1
2018-09-09T16:01:00.000Z,24.9
2018-09-09T16:06:00.000Z,24.8
2018-09-09T16:11:00.000Z,24.6
2018-09-09T16:16:00.000Z,24.5
2018-09-09T16:21:00.000Z,24.4
2018-09-09T16:26:00.000Z,24.3
2018-09-09T16:31:00.000Z,24.3
2018-09-09T16:36:00.000Z,24.2
2018-09-09T16:41:00.000Z,24.2
2018-09-09T16:46:00.000Z,24.1
2018-09-09T16:51:00.000Z,24.1
2018-09-09T16:56:00.000Z,24.0
2018-09-09T17:02:00.000Z,23.9
2018-09-09T17:07:00.000Z,23.9
2018-09-09T17:12:00.000Z,23.8
2018-09-09T17:17:00.000Z,23.7
2018-09-09T17:22:00.000Z,23.6
2018-09-09T17:27:00.000Z,23.6
2018-09-09T17:32:00.000Z,23.5
2018-09-09T17:37:00.000Z,23.4
2018-09-09T17:42:00.000Z,23.3
2018-09-09T17:47:00.000Z,23.2
2018-09-09T17:52:00.000Z,23.1
2018-09-09T17:57:00.000Z,23.0
2018-09-09T18:02:00.000Z,22.9
2018-09-09T18:07:00.000Z,22.8
2018-09-09T18:12:00.000Z,22.7
2018-09-09T18:17:00.000Z,22.6
2018-09-09T18:22:00.000Z,22.5
2018-09-09T18:27:00.000Z,22.4
2018-09-09T18:32:00.000Z,22.3
2018-09-09T18:37:00.000Z,22.1
2018-09-09T18:42:00.000Z,22.0
2018-09-09T18:47:00.000Z,21.9
2018-09-09T18:52:00.000Z,21.7
2018-09-09T18:57:00.000Z,21.6
2018-09-09T19:02:00.000Z,21.5
2018-09-09T19:07:00.000Z,21.3
2018-09-09T19:12:00.000Z,21.2
2018-09-09T19:17:00.000Z,21.0
2018-09-09T19:22:00.000Z,20.9
2018-09-09T19:27:00.000Z,20.8
2018-09-09T19:32:00.000Z,20.7
2018-09-09T19:37:00.000Z,20.6
2018-09-09T19:42:00.000Z,20.5
2018-09-09T19:47:00.000Z,20.5
2018-09-09T19:52:00.000Z,20.4
2018-09-09T19:57:00.000Z,20.4
2018-09-09T20:02:00.000Z,20.3
2018-09-09T20:07:00.000Z,20.3
2018-09-09T20:12:00.000Z,20.2
2018-09-09T20:17:00.000Z,20.2
2018-09-09T20:22:00.000Z,20.1
2018-09-09T20:27:00.000Z,20.1
2018-09-09T20:32:00.000Z,20.1
2018-09-09T20:37:00.000Z,20.1
2018-09-09T20:42:00.000Z,20.1
2018-09-09T20:47:00.000Z,20.0
2018-09-09T20:52:00.000Z,20.0
2018-09-09T20:57:00.000Z,20.0
2018-09-09T21:02:00.000Z,19.9
2018-09-09T21:07:00.000Z,19.9
2018-09-09T21:12:00.000Z,19.9
2018-09-09T21:17:00.000Z,19.9
2018-09-09T21:22:00.000Z,19.9
2018-09-09T21:27:00.000Z,19.8
2018-09-09T21:32:00.000Z,19.8
2018-09-09T21:37:00.000Z,19.8
2018-09-09T21:42:00.000Z,19.7
2018-09-09T21:47:00.000Z,19.7
2018-09-09T21:52:00.000Z,19.6
2018-09-09T21:57:00.000Z,19.6
2018-09-09T22:02:00.000Z,19.6
2018-09-09T22:07:00.000Z,19.6
2018-09-09T22:12:00.000Z,19.5
2018-09-09T22:17:00.000Z,19.5
2018-09-09T22:22:00.000Z,19.4
2018-09-09T22:27:00.000Z,19.4
2018-09-09T22:32:00.000Z,19.4
2018-09-09T22:37:00.000Z,19.3
2018-09-09T22:43:00.000Z,19.3
2018-09-09T22:48:00.000Z,19.2
2018-09-09T22:53:00.000Z,19.2
2018-09-09T22:58:00.000Z,19.1
2018-09-09T23:03:00.000Z,19.1
2018-09-09T23:08:00.000Z,19.0
2018-09-09T23:13:00.000Z,19.0
2018-09-09T23:18:00.000Z,18.9
2018-09-09T23:23:00.000Z,18.9
2018-09-09T23:28:00.000Z,18.8
2018-09-09T23:33:00.000Z,18.7
2018-09-09T23:38:00.000Z,18.6
2018-09-09T23:43:00.000Z,18.5
2018-09-09T23:48:00.000Z,18.4
2018-09-09T23:53:00.000Z,18.2
2018-09-09T23:58:00.000Z,18.1
